Terminal Aerodrome Forecast
Issued by NWS

Home | Current Version | Previous Version | Text Only | Print | Product List | Glossary On
Versions: 1 2 3 4 5 6 7 8 9 10 11 12 13 14
393
FTUS43 KGRR 061148
TAFJXN
TAF
KJXN 061148Z 0612/0712 09006KT 6SM BR SCT015 OVC200
      TEMPO 0612/0614 BKN015
     FM061400 09007KT 6SM HZ VCSH OVC035
     FM061700 10007KT P6SM VCSH OVC025
     FM062100 24008KT P6SM OVC025
     FM070100 26010G20KT P6SM BKN035
     FM070600 26010G20KT P6SM OVC030=

USA.gov is the U.S. government's official web portal to all federal, state and local government web resources and services.